sensor_id;sensor_type;location;lat;lon;timestamp;pressure;altitude;pressure_sealevel;temperature
73734;BMP280;62039;50.000;9.064;2023-02-07T00:01:17;102548.31;;;1.18
73734;BMP280;62039;50.000;9.064;2023-02-07T00:03:44;102548.41;;;1.14
73734;BMP280;62039;50.000;9.064;2023-02-07T00:06:14;102546.72;;;1.13
73734;BMP280;62039;50.000;9.064;2023-02-07T00:08:42;102543.34;;;1.11
73734;BMP280;62039;50.000;9.064;2023-02-07T00:11:12;102545.13;;;1.09
73734;BMP280;62039;50.000;9.064;2023-02-07T00:13:39;102549.50;;;1.07
73734;BMP280;62039;50.000;9.064;2023-02-07T00:16:06;102558.97;;;1.05
73734;BMP280;62039;50.000;9.064;2023-02-07T00:18:33;102559.03;;;1.04
73734;BMP280;62039;50.000;9.064;2023-02-07T00:21:00;102561.66;;;1.02
73734;BMP280;62039;50.000;9.064;2023-02-07T00:23:27;102568.56;;;1.00
73734;BMP280;62039;50.000;9.064;2023-02-07T00:25:54;102566.88;;;0.99
73734;BMP280;62039;50.000;9.064;2023-02-07T00:28:22;102575.47;;;1.00
73734;BMP280;62039;50.000;9.064;2023-02-07T00:30:49;102573.81;;;0.97
73734;BMP280;62039;50.000;9.064;2023-02-07T00:33:16;102579.78;;;0.98
73734;BMP280;62039;50.000;9.064;2023-02-07T00:35:42;102573.84;;;0.96
73734;BMP280;62039;50.000;9.064;2023-02-07T00:38:09;102583.31;;;0.95
73734;BMP280;62039;50.000;9.064;2023-02-07T00:40:35;102585.09;;;0.93
73734;BMP280;62039;50.000;9.064;2023-02-07T00:43:02;102579.97;;;0.92
73734;BMP280;62039;50.000;9.064;2023-02-07T00:45:30;102572.28;;;0.90
73734;BMP280;62039;50.000;9.064;2023-02-07T00:47:56;102568.94;;;0.88
73734;BMP280;62039;50.000;9.064;2023-02-07T00:50:23;102581.00;;;0.86
73734;BMP280;62039;50.000;9.064;2023-02-07T00:52:49;102578.47;;;0.85
73734;BMP280;62039;50.000;9.064;2023-02-07T00:55:16;102574.28;;;0.81
73734;BMP280;62039;50.000;9.064;2023-02-07T00:57:42;102567.50;;;0.78
73734;BMP280;62039;50.000;9.064;2023-02-07T01:00:10;102576.94;;;0.78
73734;BMP280;62039;50.000;9.064;2023-02-07T01:02:38;102568.41;;;0.75
73734;BMP280;62039;50.000;9.064;2023-02-07T01:05:05;102569.34;;;0.73
73734;BMP280;62039;50.000;9.064;2023-02-07T01:07:32;102564.28;;;0.70
73734;BMP280;62039;50.000;9.064;2023-02-07T01:09:58;102567.00;;;0.65
73734;BMP280;62039;50.000;9.064;2023-02-07T01:12:25;102566.25;;;0.62
73734;BMP280;62039;50.000;9.064;2023-02-07T01:14:52;102554.28;;;0.59
73734;BMP280;62039;50.000;9.064;2023-02-07T01:17:18;102559.47;;;0.58
73734;BMP280;62039;50.000;9.064;2023-02-07T01:19:46;102550.09;;;0.55
73734;BMP280;62039;50.000;9.064;2023-02-07T01:22:12;102553.63;;;0.53
73734;BMP280;62039;50.000;9.064;2023-02-07T01:24:39;102561.41;;;0.50
73734;BMP280;62039;50.000;9.064;2023-02-07T01:27:05;102561.50;;;0.47
73734;BMP280;62039;50.000;9.064;2023-02-07T01:29:32;102560.69;;;0.45
73734;BMP280;62039;50.000;9.064;2023-02-07T01:31:59;102559.03;;;0.42
73734;BMP280;62039;50.000;9.064;2023-02-07T01:34:25;102569.41;;;0.39
73734;BMP280;62039;50.000;9.064;2023-02-07T01:36:53;102567.81;;;0.35
73734;BMP280;62039;50.000;9.064;2023-02-07T01:39:19;102570.41;;;0.33
73734;BMP280;62039;50.000;9.064;2023-02-07T01:41:46;102570.44;;;0.32
73734;BMP280;62039;50.000;9.064;2023-02-07T01:47:16;102566.28;;;0.26
73734;BMP280;62039;50.000;9.064;2023-02-07T01:49:43;102581.88;;;0.20
73734;BMP280;62039;50.000;9.064;2023-02-07T01:52:26;102577.69;;;0.16
73734;BMP280;62039;50.000;9.064;2023-02-07T01:54:57;102577.75;;;0.13
73734;BMP280;62039;50.000;9.064;2023-02-07T01:57:26;102572.66;;;0.12
73734;BMP280;62039;50.000;9.064;2023-02-07T01:59:54;102570.09;;;0.12
73734;BMP280;62039;50.000;9.064;2023-02-07T02:02:22;102570.94;;;0.12
73734;BMP280;62039;50.000;9.064;2023-02-07T02:04:51;102582.81;;;0.16
73734;BMP280;62039;50.000;9.064;2023-02-07T02:07:20;102576.72;;;0.20
73734;BMP280;62039;50.000;9.064;2023-02-07T02:09:48;102577.50;;;0.22
73734;BMP280;62039;50.000;9.064;2023-02-07T02:12:58;102574.06;;;0.23
73734;BMP280;62039;50.000;9.064;2023-02-07T02:15:40;102570.66;;;0.23
73734;BMP280;62039;50.000;9.064;2023-02-07T02:18:34;102575.75;;;0.24
73734;BMP280;62039;50.000;9.064;2023-02-07T02:21:26;102576.56;;;0.26
73734;BMP280;62039;50.000;9.064;2023-02-07T02:24:28;102581.63;;;0.29
73734;BMP280;62039;50.000;9.064;2023-02-07T02:27:02;102584.06;;;0.35
73734;BMP280;62039;50.000;9.064;2023-02-07T02:29:48;102583.16;;;0.38
73734;BMP280;62039;50.000;9.064;2023-02-07T02:32:47;102584.75;;;0.42
73734;BMP280;62039;50.000;9.064;2023-02-07T02:35:21;102577.84;;;0.44
73734;BMP280;62039;50.000;9.064;2023-02-07T02:37:56;102580.38;;;0.46
73734;BMP280;62039;50.000;9.064;2023-02-07T02:40:29;102579.47;;;0.48
73734;BMP280;62039;50.000;9.064;2023-02-07T02:43:02;102580.28;;;0.49
73734;BMP280;62039;50.000;9.064;2023-02-07T02:45:32;102578.56;;;0.49
73734;BMP280;62039;50.000;9.064;2023-02-07T02:48:04;102569.97;;;0.50
73734;BMP280;62039;50.000;9.064;2023-02-07T02:50:33;102567.38;;;0.50
73734;BMP280;62039;50.000;9.064;2023-02-07T02:53:00;102572.53;;;0.50
73734;BMP280;62039;50.000;9.064;2023-02-07T02:55:48;102569.22;;;0.47
73734;BMP280;62039;50.000;9.064;2023-02-07T02:58:24;102559.88;;;0.43
73734;BMP280;62039;50.000;9.064;2023-02-07T03:01:03;102566.03;;;0.37
73734;BMP280;62039;50.000;9.064;2023-02-07T03:03:44;102566.16;;;0.32
73734;BMP280;62039;50.000;9.064;2023-02-07T03:06:32;102559.44;;;0.25
73734;BMP280;62039;50.000;9.064;2023-02-07T03:09:07;102556.22;;;0.17
73734;BMP280;62039;50.000;9.064;2023-02-07T03:11:40;102550.41;;;0.11
73734;BMP280;62039;50.000;9.064;2023-02-07T03:14:13;102562.50;;;0.07
73734;BMP280;62039;50.000;9.064;2023-02-07T03:16:48;102560.88;;;0.03
73734;BMP280;62039;50.000;9.064;2023-02-07T03:19:21;102555.81;;;0.00
73734;BMP280;62039;50.000;9.064;2023-02-07T03:21:52;102546.44;;;-0.03
73734;BMP280;62039;50.000;9.064;2023-02-07T03:24:22;102550.75;;;-0.03
73734;BMP280;62039;50.000;9.064;2023-02-07T03:26:51;102554.16;;;-0.03
73734;BMP280;62039;50.000;9.064;2023-02-07T03:29:20;102555.03;;;-0.04
73734;BMP280;62039;50.000;9.064;2023-02-07T03:31:48;102557.63;;;-0.05
73734;BMP280;62039;50.000;9.064;2023-02-07T03:34:20;102573.06;;;-0.05
73734;BMP280;62039;50.000;9.064;2023-02-07T03:36:53;102568.81;;;-0.06
73734;BMP280;62039;50.000;9.064;2023-02-07T03:39:20;102563.75;;;-0.09
73734;BMP280;62039;50.000;9.064;2023-02-07T03:41:50;102559.47;;;-0.10
73734;BMP280;62039;50.000;9.064;2023-02-07T03:44:21;102552.75;;;-0.14
73734;BMP280;62039;50.000;9.064;2023-02-07T03:46:50;102551.09;;;-0.18
73734;BMP280;62039;50.000;9.064;2023-02-07T03:49:17;102558.03;;;-0.20
73734;BMP280;62039;50.000;9.064;2023-02-07T03:51:45;102552.06;;;-0.22
73734;BMP280;62039;50.000;9.064;2023-02-07T03:54:11;102541.84;;;-0.25
73734;BMP280;62039;50.000;9.064;2023-02-07T03:56:38;102544.50;;;-0.28
73734;BMP280;62039;50.000;9.064;2023-02-07T03:59:05;102543.69;;;-0.30
73734;BMP280;62039;50.000;9.064;2023-02-07T04:01:31;102539.50;;;-0.33
73734;BMP280;62039;50.000;9.064;2023-02-07T04:03:58;102544.66;;;-0.34
73734;BMP280;62039;50.000;9.064;2023-02-07T04:06:24;102539.56;;;-0.37
73734;BMP280;62039;50.000;9.064;2023-02-07T04:08:52;102543.97;;;-0.41
73734;BMP280;62039;50.000;9.064;2023-02-07T04:11:19;102550.00;;;-0.44
73734;BMP280;62039;50.000;9.064;2023-02-07T04:13:45;102545.78;;;-0.46
73734;BMP280;62039;50.000;9.064;2023-02-07T04:16:13;102550.13;;;-0.50
73734;BMP280;62039;50.000;9.064;2023-02-07T04:18:39;102544.25;;;-0.53
73734;BMP280;62039;50.000;9.064;2023-02-07T04:21:07;102554.59;;;-0.58
73734;BMP280;62039;50.000;9.064;2023-02-07T04:23:34;102558.09;;;-0.60
73734;BMP280;62039;50.000;9.064;2023-02-07T04:26:03;102567.56;;;-0.64
73734;BMP280;62039;50.000;9.064;2023-02-07T04:28:29;102571.91;;;-0.66
73734;BMP280;62039;50.000;9.064;2023-02-07T04:30:56;102585.63;;;-0.67
73734;BMP280;62039;50.000;9.064;2023-02-07T04:33:23;102577.94;;;-0.67
73734;BMP280;62039;50.000;9.064;2023-02-07T04:35:53;102588.19;;;-0.67
73734;BMP280;62039;50.000;9.064;2023-02-07T04:38:19;102581.38;;;-0.68
73734;BMP280;62039;50.000;9.064;2023-02-07T04:40:46;102573.66;;;-0.68
73734;BMP280;62039;50.000;9.064;2023-02-07T04:43:14;102580.56;;;-0.70
73734;BMP280;62039;50.000;9.064;2023-02-07T04:45:40;102586.56;;;-0.71
73734;BMP280;62039;50.000;9.064;2023-02-07T04:48:07;102590.00;;;-0.72
73734;BMP280;62039;50.000;9.064;2023-02-07T04:50:33;102580.59;;;-0.71
73734;BMP280;62039;50.000;9.064;2023-02-07T04:53:00;102569.47;;;-0.72
73734;BMP280;62039;50.000;9.064;2023-02-07T04:55:26;102566.03;;;-0.72
73734;BMP280;62039;50.000;9.064;2023-02-07T04:57:53;102561.81;;;-0.73
73734;BMP280;62039;50.000;9.064;2023-02-07T05:00:21;102563.56;;;-0.75
73734;BMP280;62039;50.000;9.064;2023-02-07T05:02:48;102557.56;;;-0.76
73734;BMP280;62039;50.000;9.064;2023-02-07T05:05:14;102567.84;;;-0.76
73734;BMP280;62039;50.000;9.064;2023-02-07T05:07:41;102568.72;;;-0.77
73734;BMP280;62039;50.000;9.064;2023-02-07T05:10:08;102579.88;;;-0.78
73734;BMP280;62039;50.000;9.064;2023-02-07T05:12:34;102583.31;;;-0.79
73734;BMP280;62039;50.000;9.064;2023-02-07T05:15:01;102584.22;;;-0.81
73734;BMP280;62039;50.000;9.064;2023-02-07T05:17:29;102585.13;;;-0.84
73734;BMP280;62039;50.000;9.064;2023-02-07T05:19:55;102580.94;;;-0.88
73734;BMP280;62039;50.000;9.064;2023-02-07T05:22:22;102575.88;;;-0.93
73734;BMP280;62039;50.000;9.064;2023-02-07T05:24:48;102585.44;;;-0.99
73734;BMP280;62039;50.000;9.064;2023-02-07T05:27:15;102590.69;;;-1.05
73734;BMP280;62039;50.000;9.064;2023-02-07T05:29:41;102587.41;;;-1.12
73734;BMP280;62039;50.000;9.064;2023-02-07T05:32:10;102586.66;;;-1.17
73734;BMP280;62039;50.000;9.064;2023-02-07T05:34:38;102591.88;;;-1.20
73734;BMP280;62039;50.000;9.064;2023-02-07T05:37:04;102604.72;;;-1.21
73734;BMP280;62039;50.000;9.064;2023-02-07T05:39:31;102601.31;;;-1.24
73734;BMP280;62039;50.000;9.064;2023-02-07T05:41:57;102592.75;;;-1.22
73734;BMP280;62039;50.000;9.064;2023-02-07T05:44:24;102594.44;;;-1.21
73734;BMP280;62039;50.000;9.064;2023-02-07T05:46:51;102597.81;;;-1.19
73734;BMP280;62039;50.000;9.064;2023-02-07T05:49:18;102588.41;;;-1.19
73734;BMP280;62039;50.000;9.064;2023-02-07T05:51:46;102594.38;;;-1.18
73734;BMP280;62039;50.000;9.064;2023-02-07T05:54:12;102604.63;;;-1.18
73734;BMP280;62039;50.000;9.064;2023-02-07T05:56:39;102599.59;;;-1.21
73734;BMP280;62039;50.000;9.064;2023-02-07T05:59:05;102613.28;;;-1.22
73734;BMP280;62039;50.000;9.064;2023-02-07T06:01:32;102612.47;;;-1.25
73734;BMP280;62039;50.000;9.064;2023-02-07T06:03:58;102615.09;;;-1.28
73734;BMP280;62039;50.000;9.064;2023-02-07T06:06:25;102608.31;;;-1.32
73734;BMP280;62039;50.000;9.064;2023-02-07T06:08:53;102601.47;;;-1.33
73734;BMP280;62039;50.000;9.064;2023-02-07T06:11:19;102610.13;;;-1.37
73734;BMP280;62039;50.000;9.064;2023-02-07T06:13:46;102611.91;;;-1.40
73734;BMP280;62039;50.000;9.064;2023-02-07T06:16:12;102609.41;;;-1.45
73734;BMP280;62039;50.000;9.064;2023-02-07T06:18:39;102606.91;;;-1.48
73734;BMP280;62039;50.000;9.064;2023-02-07T06:21:05;102609.50;;;-1.49
73734;BMP280;62039;50.000;9.064;2023-02-07T06:23:32;102608.66;;;-1.50
73734;BMP280;62039;50.000;9.064;2023-02-07T06:26:00;102614.63;;;-1.49
73734;BMP280;62039;50.000;9.064;2023-02-07T06:28:26;102619.75;;;-1.49
73734;BMP280;62039;50.000;9.064;2023-02-07T06:30:53;102624.00;;;-1.48
73734;BMP280;62039;50.000;9.064;2023-02-07T06:33:19;102625.72;;;-1.49
73734;BMP280;62039;50.000;9.064;2023-02-07T06:35:46;102620.59;;;-1.49
73734;BMP280;62039;50.000;9.064;2023-02-07T06:38:13;102627.47;;;-1.51
73734;BMP280;62039;50.000;9.064;2023-02-07T06:40:40;102635.19;;;-1.52
73734;BMP280;62039;50.000;9.064;2023-02-07T06:43:08;102635.22;;;-1.54
73734;BMP280;62039;50.000;9.064;2023-02-07T06:45:35;102642.97;;;-1.57
73734;BMP280;62039;50.000;9.064;2023-02-07T06:48:03;102643.00;;;-1.60
73734;BMP280;62039;50.000;9.064;2023-02-07T06:50:29;102642.22;;;-1.64
73734;BMP280;62039;50.000;9.064;2023-02-07T06:52:56;102648.31;;;-1.71
73734;BMP280;62039;50.000;9.064;2023-02-07T06:55:22;102651.84;;;-1.76
73734;BMP280;62039;50.000;9.064;2023-02-07T06:57:49;102655.28;;;-1.80
73734;BMP280;62039;50.000;9.064;2023-02-07T07:00:17;102662.19;;;-1.82
73734;BMP280;62039;50.000;9.064;2023-02-07T07:02:44;102665.63;;;-1.83
73734;BMP280;62039;50.000;9.064;2023-02-07T07:05:11;102663.91;;;-1.84
73734;BMP280;62039;50.000;9.064;2023-02-07T07:07:37;102668.19;;;-1.85
73734;BMP280;62039;50.000;9.064;2023-02-07T07:10:05;102677.59;;;-1.85
73734;BMP280;62039;50.000;9.064;2023-02-07T07:12:31;102685.28;;;-1.84
73734;BMP280;62039;50.000;9.064;2023-02-07T07:14:58;102687.81;;;-1.82
73734;BMP280;62039;50.000;9.064;2023-02-07T07:17:26;102692.88;;;-1.79
73734;BMP280;62039;50.000;9.064;2023-02-07T07:19:52;102696.25;;;-1.76
73734;BMP280;62039;50.000;9.064;2023-02-07T07:22:19;102707.31;;;-1.74
73734;BMP280;62039;50.000;9.064;2023-02-07T07:24:46;102711.53;;;-1.70
73734;BMP280;62039;50.000;9.064;2023-02-07T07:27:13;102708.09;;;-1.67
73734;BMP280;62039;50.000;9.064;2023-02-07T07:29:39;102705.53;;;-1.67
73734;BMP280;62039;50.000;9.064;2023-02-07T07:32:06;102704.63;;;-1.66
73734;BMP280;62039;50.000;9.064;2023-02-07T07:34:34;102714.88;;;-1.65
73734;BMP280;62039;50.000;9.064;2023-02-07T07:37:00;102721.72;;;-1.65
73734;BMP280;62039;50.000;9.064;2023-02-07T07:39:27;102721.69;;;-1.62
73734;BMP280;62039;50.000;9.064;2023-02-07T07:41:53;102724.19;;;-1.59
73734;BMP280;62039;50.000;9.064;2023-02-07T07:44:20;102721.56;;;-1.54
73734;BMP280;62039;50.000;9.064;2023-02-07T07:46:47;102718.94;;;-1.50
73734;BMP280;62039;50.000;9.064;2023-02-07T07:49:13;102723.94;;;-1.44
73734;BMP280;62039;50.000;9.064;2023-02-07T07:51:41;102727.25;;;-1.37
73734;BMP280;62039;50.000;9.064;2023-02-07T07:54:08;102728.00;;;-1.31
73734;BMP280;62039;50.000;9.064;2023-02-07T07:56:34;102721.06;;;-1.24
73734;BMP280;62039;50.000;9.064;2023-02-07T07:59:01;102724.38;;;-1.17
73734;BMP280;62039;50.000;9.064;2023-02-07T08:01:37;102722.53;;;-1.11
73734;BMP280;62039;50.000;9.064;2023-02-07T08:04:04;102719.84;;;-1.05
73734;BMP280;62039;50.000;9.064;2023-02-07T08:06:30;102722.38;;;-1.00
73734;BMP280;62039;50.000;9.064;2023-02-07T08:08:58;102708.59;;;-0.96
73734;BMP280;62039;50.000;9.064;2023-02-07T08:11:25;102711.06;;;-0.92
73734;BMP280;62039;50.000;9.064;2023-02-07T08:13:51;102707.53;;;-0.86
73734;BMP280;62039;50.000;9.064;2023-02-07T08:16:18;102708.31;;;-0.81
73734;BMP280;62039;50.000;9.064;2023-02-07T08:18:44;102709.03;;;-0.74
73734;BMP280;62039;50.000;9.064;2023-02-07T08:21:11;102710.63;;;-0.69
73734;BMP280;62039;50.000;9.064;2023-02-07T08:23:38;102709.69;;;-0.65
73734;BMP280;62039;50.000;9.064;2023-02-07T08:26:06;102708.69;;;-0.58
73734;BMP280;62039;50.000;9.064;2023-02-07T08:28:32;102708.56;;;-0.52
73734;BMP280;62039;50.000;9.064;2023-02-07T08:30:59;102707.56;;;-0.45
73734;BMP280;62039;50.000;9.064;2023-02-07T08:33:26;102716.81;;;-0.36
73734;BMP280;62039;50.000;9.064;2023-02-07T08:35:55;102717.50;;;-0.28
73734;BMP280;62039;50.000;9.064;2023-02-07T08:38:22;102719.09;;;-0.22
73734;BMP280;62039;50.000;9.064;2023-02-07T08:40:49;102721.50;;;-0.15
73734;BMP280;62039;50.000;9.064;2023-02-07T08:43:17;102732.50;;;-0.08
73734;BMP280;62039;50.000;9.064;2023-02-07T08:45:46;102727.22;;;-0.02
73734;BMP280;62039;50.000;9.064;2023-02-07T08:48:14;102736.50;;;0.05
73734;BMP280;62039;50.000;9.064;2023-02-07T08:50:40;102732.94;;;0.11
73734;BMP280;62039;50.000;9.064;2023-02-07T08:53:07;102740.59;;;0.14
73734;BMP280;62039;50.000;9.064;2023-02-07T08:55:33;102746.47;;;0.19
73734;BMP280;62039;50.000;9.064;2023-02-07T08:58:00;102739.59;;;0.21
73734;BMP280;62039;50.000;9.064;2023-02-07T09:00:28;102750.63;;;0.24
73734;BMP280;62039;50.000;9.064;2023-02-07T09:02:54;102743.75;;;0.26
73734;BMP280;62039;50.000;9.064;2023-02-07T09:05:21;102743.72;;;0.28
73734;BMP280;62039;50.000;9.064;2023-02-07T09:07:47;102738.50;;;0.29
73734;BMP280;62039;50.000;9.064;2023-02-07T09:10:14;102740.19;;;0.32
73734;BMP280;62039;50.000;9.064;2023-02-07T09:12:41;102740.19;;;0.33
73734;BMP280;62039;50.000;9.064;2023-02-07T09:15:08;102741.03;;;0.34
73734;BMP280;62039;50.000;9.064;2023-02-07T09:17:36;102735.81;;;0.35
73734;BMP280;62039;50.000;9.064;2023-02-07T09:20:02;102734.06;;;0.38
73734;BMP280;62039;50.000;9.064;2023-02-07T09:22:29;102738.34;;;0.39
73734;BMP280;62039;50.000;9.064;2023-02-07T09:24:56;102733.19;;;0.39
73734;BMP280;62039;50.000;9.064;2023-02-07T09:27:22;102724.59;;;0.40
73734;BMP280;62039;50.000;9.064;2023-02-07T09:29:49;102724.59;;;0.40
73734;BMP280;62039;50.000;9.064;2023-02-07T09:32:15;102726.28;;;0.41
73734;BMP280;62039;50.000;9.064;2023-02-07T09:34:43;102721.19;;;0.39
73734;BMP280;62039;50.000;9.064;2023-02-07T09:37:10;102722.88;;;0.40
73734;BMP280;62039;50.000;9.064;2023-02-07T09:39:36;102722.84;;;0.42
73734;BMP280;62039;50.000;9.064;2023-02-07T09:42:10;102719.44;;;0.41
73734;BMP280;62039;50.000;9.064;2023-02-07T09:44:48;102726.34;;;0.38
73734;BMP280;62039;50.000;9.064;2023-02-07T09:47:20;102728.06;;;0.37
73734;BMP280;62039;50.000;9.064;2023-02-07T09:49:52;102725.50;;;0.37
73734;BMP280;62039;50.000;9.064;2023-02-07T09:52:22;102718.63;;;0.38
73734;BMP280;62039;50.000;9.064;2023-02-07T09:54:51;102705.78;;;0.38
73734;BMP280;62039;50.000;9.064;2023-02-07T09:57:22;102703.16;;;0.39
73734;BMP280;62039;50.000;9.064;2023-02-07T09:59:52;102705.66;;;0.42
73734;BMP280;62039;50.000;9.064;2023-02-07T10:02:24;102705.63;;;0.44
73734;BMP280;62039;50.000;9.064;2023-02-07T10:04:54;102703.00;;;0.45
73734;BMP280;62039;50.000;9.064;2023-02-07T10:07:22;102704.69;;;0.48
73734;BMP280;62039;50.000;9.064;2023-02-07T10:09:49;102705.44;;;0.51
73734;BMP280;62039;50.000;9.064;2023-02-07T10:12:28;102707.84;;;0.57
73734;BMP280;62039;50.000;9.064;2023-02-07T10:15:16;102708.56;;;0.64
73734;BMP280;62039;50.000;9.064;2023-02-07T10:17:56;102717.84;;;0.69
73734;BMP280;62039;50.000;9.064;2023-02-07T10:20:34;102703.16;;;0.74
73734;BMP280;62039;50.000;9.064;2023-02-07T10:23:13;102704.63;;;0.83
73734;BMP280;62039;50.000;9.064;2023-02-07T10:25:49;102699.25;;;0.92
73734;BMP280;62039;50.000;9.064;2023-02-07T10:28:44;102691.19;;;1.04
73734;BMP280;62039;50.000;9.064;2023-02-07T10:31:14;102688.34;;;1.15
73734;BMP280;62039;50.000;9.064;2023-02-07T10:33:48;102679.41;;;1.27
73734;BMP280;62039;50.000;9.064;2023-02-07T10:36:17;102679.91;;;1.39
73734;BMP280;62039;50.000;9.064;2023-02-07T10:38:48;102679.50;;;1.53
73734;BMP280;62039;50.000;9.064;2023-02-07T10:41:30;102682.50;;;1.69
73734;BMP280;62039;50.000;9.064;2023-02-07T10:43:58;102679.53;;;1.81
73734;BMP280;62039;50.000;9.064;2023-02-07T10:46:25;102679.13;;;1.94
73734;BMP280;62039;50.000;9.064;2023-02-07T10:48:52;102665.78;;;2.08
73734;BMP280;62039;50.000;9.064;2023-02-07T10:51:25;102667.94;;;2.23
73734;BMP280;62039;50.000;9.064;2023-02-07T10:54:05;102668.22;;;2.41
73734;BMP280;62039;50.000;9.064;2023-02-07T10:56:33;102665.91;;;2.58
73734;BMP280;62039;50.000;9.064;2023-02-07T10:59:00;102656.75;;;2.74
73734;BMP280;62039;50.000;9.064;2023-02-07T11:01:28;102656.16;;;2.91
73734;BMP280;62039;50.000;9.064;2023-02-07T11:03:57;102655.59;;;3.06
73734;BMP280;62039;50.000;9.064;2023-02-07T11:06:25;102657.53;;;3.24
73734;BMP280;62039;50.000;9.064;2023-02-07T11:09:10;102650.84;;;3.42
73734;BMP280;62039;50.000;9.064;2023-02-07T11:11:38;102657.03;;;3.60
73734;BMP280;62039;50.000;9.064;2023-02-07T11:14:06;102658.13;;;3.77
73734;BMP280;62039;50.000;9.064;2023-02-07T11:16:33;102645.50;;;3.92
73734;BMP280;62039;50.000;9.064;2023-02-07T11:19:02;102647.53;;;4.05
73734;BMP280;62039;50.000;9.064;2023-02-07T11:21:34;102653.75;;;4.21
73734;BMP280;62039;50.000;9.064;2023-02-07T11:24:04;102652.28;;;4.36
73734;BMP280;62039;50.000;9.064;2023-02-07T11:26:33;102648.28;;;4.49
73734;BMP280;62039;50.000;9.064;2023-02-07T11:29:04;102640.88;;;4.60
73734;BMP280;62039;50.000;9.064;2023-02-07T11:31:35;102636.03;;;4.73
73734;BMP280;62039;50.000;9.064;2023-02-07T11:34:28;102636.41;;;4.84
73734;BMP280;62039;50.000;9.064;2023-02-07T11:37:09;102629.72;;;4.99
73734;BMP280;62039;50.000;9.064;2023-02-07T11:39:42;102629.03;;;5.14
73734;BMP280;62039;50.000;9.064;2023-02-07T11:42:11;102621.34;;;5.31
73734;BMP280;62039;50.000;9.064;2023-02-07T11:44:40;102622.13;;;5.52
73734;BMP280;62039;50.000;9.064;2023-02-07T11:47:12;102612.69;;;5.68
73734;BMP280;62039;50.000;9.064;2023-02-07T11:49:41;102619.72;;;5.83
73734;BMP280;62039;50.000;9.064;2023-02-07T11:52:10;102621.59;;;5.99
73734;BMP280;62039;50.000;9.064;2023-02-07T11:54:38;102621.59;;;6.16
73734;BMP280;62039;50.000;9.064;2023-02-07T11:57:08;102619.94;;;6.32
73734;BMP280;62039;50.000;9.064;2023-02-07T11:59:44;102608.47;;;6.53
73734;BMP280;62039;50.000;9.064;2023-02-07T12:02:16;102617.16;;;6.70
73734;BMP280;62039;50.000;9.064;2023-02-07T12:04:44;102607.78;;;6.83
73734;BMP280;62039;50.000;9.064;2023-02-07T12:07:15;102613.88;;;6.99
73734;BMP280;62039;50.000;9.064;2023-02-07T12:09:46;102601.81;;;7.14
73734;BMP280;62039;50.000;9.064;2023-02-07T12:12:17;102591.41;;;7.29
73734;BMP280;62039;50.000;9.064;2023-02-07T12:14:50;102592.81;;;7.51
73734;BMP280;62039;50.000;9.064;2023-02-07T12:17:22;102594.34;;;7.70
73734;BMP280;62039;50.000;9.064;2023-02-07T12:19:53;102588.19;;;7.87
73734;BMP280;62039;50.000;9.064;2023-02-07T12:22:24;102593.44;;;8.01
73734;BMP280;62039;50.000;9.064;2023-02-07T12:24:55;102586.66;;;8.13
73734;BMP280;62039;50.000;9.064;2023-02-07T12:27:28;102581.56;;;8.25
73734;BMP280;62039;50.000;9.064;2023-02-07T12:29:59;102579.91;;;8.39
73734;BMP280;62039;50.000;9.064;2023-02-07T12:32:34;102569.72;;;8.50
73734;BMP280;62039;50.000;9.064;2023-02-07T12:35:12;102567.09;;;8.64
73734;BMP280;62039;50.000;9.064;2023-02-07T12:37:44;102570.00;;;8.74
73734;BMP280;62039;50.000;9.064;2023-02-07T12:40:18;102568.59;;;8.82
73734;BMP280;62039;50.000;9.064;2023-02-07T12:42:51;102579.19;;;8.93
73734;BMP280;62039;50.000;9.064;2023-02-07T12:45:31;102571.53;;;9.04
73734;BMP280;62039;50.000;9.064;2023-02-07T12:48:08;102568.06;;;9.18
73734;BMP280;62039;50.000;9.064;2023-02-07T12:50:54;102569.63;;;9.35
73734;BMP280;62039;50.000;9.064;2023-02-07T12:53:35;102561.72;;;9.49
73734;BMP280;62039;50.000;9.064;2023-02-07T12:56:19;102560.78;;;9.64
73734;BMP280;62039;50.000;9.064;2023-02-07T12:58:56;102557.13;;;9.79
73734;BMP280;62039;50.000;9.064;2023-02-07T13:01:29;102547.25;;;9.97
73734;BMP280;62039;50.000;9.064;2023-02-07T13:04:26;102550.41;;;10.15
73734;BMP280;62039;50.000;9.064;2023-02-07T13:07:03;102544.56;;;10.37
73734;BMP280;62039;50.000;9.064;2023-02-07T13:09:40;102541.53;;;10.55
73734;BMP280;62039;50.000;9.064;2023-02-07T13:12:11;102542.84;;;10.74
73734;BMP280;62039;50.000;9.064;2023-02-07T13:14:50;102540.41;;;10.96
73734;BMP280;62039;50.000;9.064;2023-02-07T13:17:33;102535.41;;;11.17
73734;BMP280;62039;50.000;9.064;2023-02-07T13:20:04;102534.69;;;11.38
73734;BMP280;62039;50.000;9.064;2023-02-07T13:22:35;102533.94;;;11.60
73734;BMP280;62039;50.000;9.064;2023-02-07T13:25:15;102529.63;;;11.83
73734;BMP280;62039;50.000;9.064;2023-02-07T13:27:44;102530.50;;;12.06
73734;BMP280;62039;50.000;9.064;2023-02-07T13:30:13;102536.59;;;12.29
73734;BMP280;62039;50.000;9.064;2023-02-07T13:32:41;102526.38;;;12.48
73734;BMP280;62039;50.000;9.064;2023-02-07T13:35:12;102519.72;;;12.66
73734;BMP280;62039;50.000;9.064;2023-02-07T13:37:46;102519.19;;;12.83
73734;BMP280;62039;50.000;9.064;2023-02-07T13:40:31;102520.34;;;13.02
73734;BMP280;62039;50.000;9.064;2023-02-07T13:43:02;102514.50;;;13.20
73734;BMP280;62039;50.000;9.064;2023-02-07T13:45:42;102512.84;;;13.40
73734;BMP280;62039;50.000;9.064;2023-02-07T13:48:17;102516.47;;;13.60
73734;BMP280;62039;50.000;9.064;2023-02-07T13:50:53;102511.31;;;13.79
73734;BMP280;62039;50.000;9.064;2023-02-07T13:53:29;102508.00;;;13.98
73734;BMP280;62039;50.000;9.064;2023-02-07T13:56:08;102510.72;;;14.17
73734;BMP280;62039;50.000;9.064;2023-02-07T14:01:18;102515.44;;;14.53
73734;BMP280;62039;50.000;9.064;2023-02-07T14:04:00;102516.75;;;14.69
73734;BMP280;62039;50.000;9.064;2023-02-07T14:06:29;102516.91;;;14.77
73734;BMP280;62039;50.000;9.064;2023-02-07T14:09:02;102515.41;;;14.84
73734;BMP280;62039;50.000;9.064;2023-02-07T14:11:37;102517.78;;;14.87
73734;BMP280;62039;50.000;9.064;2023-02-07T14:14:13;102515.28;;;14.85
73734;BMP280;62039;50.000;9.064;2023-02-07T14:16:46;102518.59;;;14.78
73734;BMP280;62039;50.000;9.064;2023-02-07T14:19:13;102519.63;;;14.66
73734;BMP280;62039;50.000;9.064;2023-02-07T14:21:41;102519.47;;;14.58
73734;BMP280;62039;50.000;9.064;2023-02-07T14:24:28;102516.53;;;14.41
73734;BMP280;62039;50.000;9.064;2023-02-07T14:27:00;102513.72;;;14.33